ExpreSS Skopelitis — SW3130 — position and weather

sailwx.info

Track history (hours):
 
Tides and Currents Weather Stations Pressure Air Temp Water Temp Dewpoint Dewpoint Depression Visibility Wind Speed Wind Dir Waves Ship Positions

ExpreSS Skopelitis

Last reported at 2014-Oct-31 14:33 UTC. Time now 2014-Oct-31 14:54 UTC.
Position N 36°56' E 025°36'.

Length 45 m; draft 2.4 m.

Type: Passenger vessel. MMSI: 237029400.

Date/timePositionNaut miles runAvg speedWind from/ knotsBaromVisibWave heightAir tempDewpointWater temp
2014-Oct-31 14:33N 36°56' E 025°36'7 7.2
2014-Oct-31 13:33N 36°52' E 025°28'1212.1
2014-Oct-31 12:33N 37°02' E 025°21'4 4.2
2014-Oct-31 11:33N 37°06' E 025°22'0 0.0
2014-Oct-31 10:33N 37°06' E 025°22'0 0.0
2014-Oct-31 09:33N 37°06' E 025°22'3 2.7
2014-Oct-31 08:33N 37°04' E 025°20'1211.8
2014-Oct-31 07:33N 36°54' E 025°27'6 5.7
2014-Oct-31 06:33N 36°55' E 025°34'10 9.8
2014-Oct-31 05:33N 36°52' E 025°46'5 4.9
2014-Oct-31 04:26N 36°50' E 025°52'0 0.0
2014-Oct-31 03:33N 36°50' E 025°52'0 0.0
2014-Oct-31 02:24N 36°50' E 025°52'0 0.0
2014-Oct-31 01:33N 36°50' E 025°52'0 0.0
2014-Oct-31 00:33N 36°50' E 025°52'0 0.0
2014-Oct-30 23:33N 36°50' E 025°52'0 0.0
2014-Oct-30 22:33N 36°50' E 025°52'0 0.0
2014-Oct-30 21:33N 36°50' E 025°52'0 0.0
2014-Oct-30 20:33N 36°50' E 025°52'0 0.0
2014-Oct-30 19:31N 36°50' E 025°52'0 0.0
2014-Oct-30 18:29N 36°50' E 025°52'0 0.0
2014-Oct-30 17:33N 36°50' E 025°52'0 0.0
2014-Oct-30 16:06N 36°50' E 025°52'4 6.6
2014-Oct-30 15:33N 36°51' E 025°48'1110.7
2014-Oct-30 14:33N 36°56' E 025°36'7 6.9
2014-Oct-30 13:33N 36°52' E 025°28'1211.9
2014-Oct-30 12:33N 37°02' E 025°21'4 4.4
2014-Oct-30 11:33N 37°06' E 025°22'0 0.0
2014-Oct-30 10:33N 37°06' E 025°22'0 0.0
2014-Oct-30 09:33N 37°06' E 025°22'2 2.2
2014-Oct-30 08:33N 37°05' E 025°20'1211.6
2014-Oct-30 07:33N 36°55' E 025°26'5 5.4
2014-Oct-30 06:33N 36°55' E 025°33'1010.1
2014-Oct-30 05:33N 36°52' E 025°45'6 4.0
2014-Oct-30 04:07N 36°50' E 025°52'0 0.0
2014-Oct-30 03:24N 36°50' E 025°52'0 0.0
2014-Oct-30 01:21N 36°50' E 025°52'0 0.0
2014-Oct-30 00:28N 36°50' E 025°52'0 0.0
2014-Oct-29 23:32N 36°50' E 025°52'0 0.0
2014-Oct-29 22:33N 36°50' E 025°52'0 0.0
2014-Oct-29 21:29N 36°50' E 025°52'0 0.0
2014-Oct-29 19:17N 36°50' E 025°52'0 0.0
2014-Oct-29 18:33N 36°50' E 025°52'6 6.2
2014-Oct-29 17:33N 36°54' E 025°58'10 9.6
2014-Oct-29 16:33N 37°02' E 025°51'5 5.1
2014-Oct-29 15:33N 37°02' E 025°44'1010.0
2014-Oct-29 14:33N 36°55' E 025°35'6 6.5
2014-Oct-29 13:33N 36°52' E 025°28'1211.7
2014-Oct-29 12:33N 37°02' E 025°21'5 4.6
2014-Oct-29 11:33N 37°06' E 025°22'0 0.0
2014-Oct-29 10:33N 37°06' E 025°22'3 3.5
2014-Oct-29 09:33N 37°03' E 025°20'1211.5
2014-Oct-29 08:33N 36°53' E 025°28'6 6.3
2014-Oct-29 07:33N 36°55' E 025°35'1110.9
2014-Oct-29 06:33N 37°03' E 025°45'7 7.0
2014-Oct-29 05:33N 36°60' E 025°53'8 7.5
2014-Oct-29 04:33N 36°53' E 025°54'4 3.5
2014-Oct-29 03:33N 36°50' E 025°52'0 0.0
2014-Oct-29 02:31N 36°50' E 025°52'0 0.0
2014-Oct-29 01:33N 36°50' E 025°52'0 0.0
2014-Oct-28 23:31N 36°50' E 025°52'0 0.0
2014-Oct-28 22:33N 36°50' E 025°52'0 0.0
2014-Oct-28 21:32N 36°50' E 025°52'0 0.0
2014-Oct-28 20:33N 36°50' E 025°52'0 0.0
2014-Oct-28 19:32N 36°50' E 025°52'0 0.0
2014-Oct-28 18:33N 36°50' E 025°52'0 0.0
2014-Oct-28 17:33N 36°50' E 025°52'0 0.0
2014-Oct-28 16:33N 36°50' E 025°52'3 3.2
2014-Oct-28 15:33N 36°51' E 025°48'1111.0
2014-Oct-28 14:33N 36°56' E 025°36'7 6.8
2014-Oct-28 13:33N 36°52' E 025°29'1212.1
2014-Oct-28 12:33N 37°03' E 025°20'4 4.0
2014-Oct-28 11:33N 37°06' E 025°22'0 0.0
2014-Oct-28 10:33N 37°06' E 025°22'0 0.0
2014-Oct-28 09:33N 37°06' E 025°22'1 1.0
2014-Oct-28 08:33N 37°06' E 025°21'1110.8
2014-Oct-28 07:33N 36°56' E 025°25'6 5.8
2014-Oct-28 06:33N 36°54' E 025°32'1010.4
2014-Oct-28 05:33N 36°52' E 025°45'6 5.8
2014-Oct-28 04:33N 36°50' E 025°52'0 0.0
2014-Oct-28 03:33N 36°50' E 025°52'0 0.0
2014-Oct-28 02:33N 36°50' E 025°52'0 0.0
2014-Oct-28 01:33N 36°50' E 025°52'0 0.0
2014-Oct-28 00:33N 36°50' E 025°52'0 0.0
2014-Oct-27 23:32N 36°50' E 025°52'0 0.0
2014-Oct-27 22:27N 36°50' E 025°52'0 0.0
2014-Oct-27 21:26N 36°50' E 025°52'0 0.0
2014-Oct-27 20:26N 36°50' E 025°52'0 0.0
2014-Oct-27 18:31N 36°50' E 025°52'7 7.3
2014-Oct-27 17:33N 36°54' E 025°59'1211.9
2014-Oct-27 16:32N 37°04' E 025°49'6 6.0
2014-Oct-27 15:33N 37°01' E 025°43'10 9.8
2014-Oct-27 14:33N 36°55' E 025°33'4 4.4
2014-Oct-27 13:33N 36°53' E 025°28'1211.9
2014-Oct-27 12:33N 37°03' E 025°20'4 4.0
2014-Oct-27 11:33N 37°06' E 025°22'0 0.0
2014-Oct-27 10:33N 37°06' E 025°22'6 5.6
2014-Oct-27 09:33N 37°01' E 025°21'1110.6
2014-Oct-27 08:33N 36°52' E 025°29'8 8.1
2014-Oct-27 07:33N 36°56' E 025°37'1212.3
2014-Oct-27 06:33N 37°06' E 025°47'10 9.8
2014-Oct-27 05:33N 36°58' E 025°54'6 5.8
2014-Oct-27 04:33N 36°52' E 025°53'3 0.1
2014-Oct-26 02:31N 36°50' E 025°52'0 0.0
2014-Oct-25 18:33N 36°50' E 025°52'0 0.0
2014-Oct-25 17:32N 36°50' E 025°52'4 4.5
2014-Oct-25 16:33N 36°53' E 025°56'8 7.9
2014-Oct-25 15:33N 37°00' E 025°52'6 6.3
2014-Oct-25 14:33N 37°03' E 025°44'1110.7
2014-Oct-25 13:33N 36°55' E 025°35'6 6.1
2014-Oct-25 12:33N 36°54' E 025°27'1110.8
2014-Oct-25 11:33N 37°03' E 025°20'4 4.0
2014-Oct-25 10:33N 37°06' E 025°22'0 0.0
2014-Oct-25 09:33N 37°06' E 025°22'6 5.7
2014-Oct-25 08:33N 37°01' E 025°21'1110.6
2014-Oct-25 07:33N 36°52' E 025°28'7 7.2
2014-Oct-25 06:33N 36°56' E 025°36'1211.9
2014-Oct-25 05:33N 37°04' E 025°46'8 7.8
2014-Oct-25 04:33N 36°59' E 025°54'7 7.1
2014-Oct-25 03:33N 36°52' E 025°54'5 0.4
2014-Oct-24 14:33N 36°51' E 025°48'1111.0
2014-Oct-24 13:33N 36°56' E 025°36'7 7.1
2014-Oct-24 12:33N 36°52' E 025°28'1211.8
2014-Oct-24 11:33N 37°02' E 025°21'4 4.4
2014-Oct-24 10:33N 37°06' E 025°22'0 0.0
2014-Oct-24 09:33N 37°06' E 025°22'0 0.0
2014-Oct-24 08:33N 37°06' E 025°22'3 2.6
2014-Oct-24 07:33N 37°05' E 025°20'1211.9
2014-Oct-24 06:33N 36°54' E 025°27'5 5.5
2014-Oct-24 05:33N 36°55' E 025°34'1010.1
2014-Oct-24 04:33N 36°52' E 025°46'2 0.1
2014-Oct-23 14:33N 36°51' E 025°47'1110.7
2014-Oct-23 13:33N 36°55' E 025°35'6 6.1
2014-Oct-23 12:33N 36°53' E 025°28'1111.1
2014-Oct-23 11:33N 37°03' E 025°20'4 4.1
2014-Oct-23 10:33N 37°06' E 025°22'0 0.0
2014-Oct-23 09:33N 37°06' E 025°22'2 1.8
2014-Oct-23 08:34N 37°05' E 025°20'1211.8
2014-Oct-23 07:33N 36°55' E 025°26'5 5.0
2014-Oct-23 06:33N 36°55' E 025°33'10 9.9
2014-Oct-23 05:34N 36°53' E 025°45'6 0.5
2014-Oct-22 17:07N 36°50' E 025°52'4 6.2
2014-Oct-22 16:33N 36°53' E 025°54'7 7.1
2014-Oct-22 15:33N 36°60' E 025°53'7 7.1
2014-Oct-22 14:33N 37°04' E 025°46'1111.3
2014-Oct-22 13:33N 36°56' E 025°36'7 7.4
2014-Oct-22 12:33N 36°52' E 025°28'1211.5
2014-Oct-22 11:33N 37°02' E 025°21'5 4.7
2014-Oct-22 10:32N 37°06' E 025°22'0 0.0
2014-Oct-22 09:32N 37°06' E 025°22'2 2.2
2014-Oct-22 08:33N 37°05' E 025°20'15 7.4
2014-Oct-22 06:33N 36°55' E 025°34'10 9.7
2014-Oct-22 05:33N 37°01' E 025°43'8 7.6
2014-Oct-22 04:33N 37°01' E 025°52'8 8.5
2014-Oct-22 03:33N 36°53' E 025°55'5 0.4
2014-Oct-21 14:33N 36°50' E 025°50'  
Track history (hours):
 
Tides and Currents Weather Stations Pressure Air Temp Water Temp Dewpoint Dewpoint Depression Visibility Wind Speed Wind Dir Waves Ship Positions

ExpreSS Skopelitis

Last reported at 2014-Oct-31 14:33 UTC. Time now 2014-Oct-31 14:54 UTC.
Position N 36°56' E 025°36'.

Length 45 m; draft 2.4 m.

Type: Passenger vessel. MMSI: 237029400.

Date/timePositionNaut miles runAvg speedWind from/ knotsBaromVisibWave heightAir tempDewpointWater temp
2014-Oct-31 14:33N 36°56' E 025°36'7 7.2
2014-Oct-31 13:33N 36°52' E 025°28'1212.1
2014-Oct-31 12:33N 37°02' E 025°21'4 4.2
2014-Oct-31 11:33N 37°06' E 025°22'0 0.0
2014-Oct-31 10:33N 37°06' E 025°22'0 0.0
2014-Oct-31 09:33N 37°06' E 025°22'3 2.7
2014-Oct-31 08:33N 37°04' E 025°20'1211.8
2014-Oct-31 07:33N 36°54' E 025°27'6 5.7
2014-Oct-31 06:33N 36°55' E 025°34'10 9.8
2014-Oct-31 05:33N 36°52' E 025°46'5 4.9
2014-Oct-31 04:26N 36°50' E 025°52'0 0.0
2014-Oct-31 03:33N 36°50' E 025°52'0 0.0
2014-Oct-31 02:24N 36°50' E 025°52'0 0.0
2014-Oct-31 01:33N 36°50' E 025°52'0 0.0
2014-Oct-31 00:33N 36°50' E 025°52'0 0.0
2014-Oct-30 23:33N 36°50' E 025°52'0 0.0
2014-Oct-30 22:33N 36°50' E 025°52'0 0.0
2014-Oct-30 21:33N 36°50' E 025°52'0 0.0
2014-Oct-30 20:33N 36°50' E 025°52'0 0.0
2014-Oct-30 19:31N 36°50' E 025°52'0 0.0
2014-Oct-30 18:29N 36°50' E 025°52'0 0.0
2014-Oct-30 17:33N 36°50' E 025°52'0 0.0
2014-Oct-30 16:06N 36°50' E 025°52'4 6.6
2014-Oct-30 15:33N 36°51' E 025°48'1110.7
2014-Oct-30 14:33N 36°56' E 025°36'7 6.9
2014-Oct-30 13:33N 36°52' E 025°28'1211.9
2014-Oct-30 12:33N 37°02' E 025°21'4 4.4
2014-Oct-30 11:33N 37°06' E 025°22'0 0.0
2014-Oct-30 10:33N 37°06' E 025°22'0 0.0
2014-Oct-30 09:33N 37°06' E 025°22'2 2.2
2014-Oct-30 08:33N 37°05' E 025°20'1211.6
2014-Oct-30 07:33N 36°55' E 025°26'5 5.4
2014-Oct-30 06:33N 36°55' E 025°33'1010.1
2014-Oct-30 05:33N 36°52' E 025°45'6 4.0
2014-Oct-30 04:07N 36°50' E 025°52'0 0.0
2014-Oct-30 03:24N 36°50' E 025°52'0 0.0
2014-Oct-30 01:21N 36°50' E 025°52'0 0.0
2014-Oct-30 00:28N 36°50' E 025°52'0 0.0
2014-Oct-29 23:32N 36°50' E 025°52'0 0.0
2014-Oct-29 22:33N 36°50' E 025°52'0 0.0
2014-Oct-29 21:29N 36°50' E 025°52'0 0.0
2014-Oct-29 19:17N 36°50' E 025°52'0 0.0
2014-Oct-29 18:33N 36°50' E 025°52'6 6.2
2014-Oct-29 17:33N 36°54' E 025°58'10 9.6
2014-Oct-29 16:33N 37°02' E 025°51'5 5.1
2014-Oct-29 15:33N 37°02' E 025°44'1010.0
2014-Oct-29 14:33N 36°55' E 025°35'6 6.5
2014-Oct-29 13:33N 36°52' E 025°28'1211.7
2014-Oct-29 12:33N 37°02' E 025°21'5 4.6
2014-Oct-29 11:33N 37°06' E 025°22'0 0.0
2014-Oct-29 10:33N 37°06' E 025°22'3 3.5
2014-Oct-29 09:33N 37°03' E 025°20'1211.5
2014-Oct-29 08:33N 36°53' E 025°28'6 6.3
2014-Oct-29 07:33N 36°55' E 025°35'1110.9
2014-Oct-29 06:33N 37°03' E 025°45'7 7.0
2014-Oct-29 05:33N 36°60' E 025°53'8 7.5
2014-Oct-29 04:33N 36°53' E 025°54'4 3.5
2014-Oct-29 03:33N 36°50' E 025°52'0 0.0
2014-Oct-29 02:31N 36°50' E 025°52'0 0.0
2014-Oct-29 01:33N 36°50' E 025°52'0 0.0
2014-Oct-28 23:31N 36°50' E 025°52'0 0.0
2014-Oct-28 22:33N 36°50' E 025°52'0 0.0
2014-Oct-28 21:32N 36°50' E 025°52'0 0.0
2014-Oct-28 20:33N 36°50' E 025°52'0 0.0
2014-Oct-28 19:32N 36°50' E 025°52'0 0.0
2014-Oct-28 18:33N 36°50' E 025°52'0 0.0
2014-Oct-28 17:33N 36°50' E 025°52'0 0.0
2014-Oct-28 16:33N 36°50' E 025°52'3 3.2
2014-Oct-28 15:33N 36°51' E 025°48'1111.0
2014-Oct-28 14:33N 36°56' E 025°36'7 6.8
2014-Oct-28 13:33N 36°52' E 025°29'1212.1
2014-Oct-28 12:33N 37°03' E 025°20'4 4.0
2014-Oct-28 11:33N 37°06' E 025°22'0 0.0
2014-Oct-28 10:33N 37°06' E 025°22'0 0.0
2014-Oct-28 09:33N 37°06' E 025°22'1 1.0
2014-Oct-28 08:33N 37°06' E 025°21'1110.8
2014-Oct-28 07:33N 36°56' E 025°25'6 5.8
2014-Oct-28 06:33N 36°54' E 025°32'1010.4
2014-Oct-28 05:33N 36°52' E 025°45'6 5.8
2014-Oct-28 04:33N 36°50' E 025°52'0 0.0
2014-Oct-28 03:33N 36°50' E 025°52'0 0.0
2014-Oct-28 02:33N 36°50' E 025°52'0 0.0
2014-Oct-28 01:33N 36°50' E 025°52'0 0.0
2014-Oct-28 00:33N 36°50' E 025°52'0 0.0
2014-Oct-27 23:32N 36°50' E 025°52'0 0.0
2014-Oct-27 22:27N 36°50' E 025°52'0 0.0
2014-Oct-27 21:26N 36°50' E 025°52'0 0.0
2014-Oct-27 20:26N 36°50' E 025°52'0 0.0
2014-Oct-27 18:31N 36°50' E 025°52'7 7.3
2014-Oct-27 17:33N 36°54' E 025°59'1211.9
2014-Oct-27 16:32N 37°04' E 025°49'6 6.0
2014-Oct-27 15:33N 37°01' E 025°43'10 9.8
2014-Oct-27 14:33N 36°55' E 025°33'4 4.4
2014-Oct-27 13:33N 36°53' E 025°28'1211.9
2014-Oct-27 12:33N 37°03' E 025°20'4 4.0
2014-Oct-27 11:33N 37°06' E 025°22'0 0.0
2014-Oct-27 10:33N 37°06' E 025°22'6 5.6
2014-Oct-27 09:33N 37°01' E 025°21'1110.6
2014-Oct-27 08:33N 36°52' E 025°29'8 8.1
2014-Oct-27 07:33N 36°56' E 025°37'1212.3
2014-Oct-27 06:33N 37°06' E 025°47'10 9.8
2014-Oct-27 05:33N 36°58' E 025°54'6 5.8
2014-Oct-27 04:33N 36°52' E 025°53'3 0.1
2014-Oct-26 02:31N 36°50' E 025°52'0 0.0
2014-Oct-25 18:33N 36°50' E 025°52'0 0.0
2014-Oct-25 17:32N 36°50' E 025°52'4 4.5
2014-Oct-25 16:33N 36°53' E 025°56'8 7.9
2014-Oct-25 15:33N 37°00' E 025°52'6 6.3
2014-Oct-25 14:33N 37°03' E 025°44'1110.7
2014-Oct-25 13:33N 36°55' E 025°35'6 6.1
2014-Oct-25 12:33N 36°54' E 025°27'1110.8
2014-Oct-25 11:33N 37°03' E 025°20'4 4.0
2014-Oct-25 10:33N 37°06' E 025°22'0 0.0
2014-Oct-25 09:33N 37°06' E 025°22'6 5.7
2014-Oct-25 08:33N 37°01' E 025°21'1110.6
2014-Oct-25 07:33N 36°52' E 025°28'7 7.2
2014-Oct-25 06:33N 36°56' E 025°36'1211.9
2014-Oct-25 05:33N 37°04' E 025°46'8 7.8
2014-Oct-25 04:33N 36°59' E 025°54'7 7.1
2014-Oct-25 03:33N 36°52' E 025°54'5 0.4
2014-Oct-24 14:33N 36°51' E 025°48'1111.0
2014-Oct-24 13:33N 36°56' E 025°36'7 7.1
2014-Oct-24 12:33N 36°52' E 025°28'1211.8
2014-Oct-24 11:33N 37°02' E 025°21'4 4.4
2014-Oct-24 10:33N 37°06' E 025°22'0 0.0
2014-Oct-24 09:33N 37°06' E 025°22'0 0.0
2014-Oct-24 08:33N 37°06' E 025°22'3 2.6
2014-Oct-24 07:33N 37°05' E 025°20'1211.9
2014-Oct-24 06:33N 36°54' E 025°27'5 5.5
2014-Oct-24 05:33N 36°55' E 025°34'1010.1
2014-Oct-24 04:33N 36°52' E 025°46'2 0.1
2014-Oct-23 14:33N 36°51' E 025°47'1110.7
2014-Oct-23 13:33N 36°55' E 025°35'6 6.1
2014-Oct-23 12:33N 36°53' E 025°28'1111.1
2014-Oct-23 11:33N 37°03' E 025°20'4 4.1
2014-Oct-23 10:33N 37°06' E 025°22'0 0.0
2014-Oct-23 09:33N 37°06' E 025°22'2 1.8
2014-Oct-23 08:34N 37°05' E 025°20'1211.8
2014-Oct-23 07:33N 36°55' E 025°26'5 5.0
2014-Oct-23 06:33N 36°55' E 025°33'10 9.9
2014-Oct-23 05:34N 36°53' E 025°45'6 0.5
2014-Oct-22 17:07N 36°50' E 025°52'4 6.2
2014-Oct-22 16:33N 36°53' E 025°54'7 7.1
2014-Oct-22 15:33N 36°60' E 025°53'7 7.1
2014-Oct-22 14:33N 37°04' E 025°46'1111.3
2014-Oct-22 13:33N 36°56' E 025°36'7 7.4
2014-Oct-22 12:33N 36°52' E 025°28'1211.5
2014-Oct-22 11:33N 37°02' E 025°21'5 4.7
2014-Oct-22 10:32N 37°06' E 025°22'0 0.0
2014-Oct-22 09:32N 37°06' E 025°22'2 2.2
2014-Oct-22 08:33N 37°05' E 025°20'15 7.4
2014-Oct-22 06:33N 36°55' E 025°34'10 9.7
2014-Oct-22 05:33N 37°01' E 025°43'8 7.6
2014-Oct-22 04:33N 37°01' E 025°52'8 8.5
2014-Oct-22 03:33N 36°53' E 025°55'5 0.4
2014-Oct-21 14:33N 36°50' E 025°50'  

Dump ship's entire track history